Gode, Ethiopia
Current Conditions -  °F | °C
As of 5:55 AM on Monday 24 Nov 2014 (Local Time) from KQRH Reporting Station
Clear Clear  
Wind Chill: 77°   Ceiling: Unl
Heat Index: 79°   Visibility: 6mi
Dew Point: 70°   Wind: 2mph
Humidity: 79%   Direction: 200°SSW
Pressure: 29.93"   Gusts: NA
Location:  5.9°N, 43.57°E
Report Text: KQRH 240255Z AUTO 20002KT 9000 CLR 25/21 A2993 RMK AO2 SLP135 T02500212 53015
Loading
Personal Weather Stations






























Interactive Weather Map New forecast layout! Learn more

10-Day Weather Forecast

Advertisements
Track Severe Weather on mobile